sensor_id;sensor_type;location;lat;lon;timestamp;P1;durP1;ratioP1;P2;durP2;ratioP2
20986;SDS011;10652;50.306;8.570;2022-12-29T00:03:40;4.22;;;1.80;;
20986;SDS011;10652;50.306;8.570;2022-12-29T00:07:42;2.40;;;1.63;;
20986;SDS011;10652;50.306;8.570;2022-12-29T00:11:44;3.75;;;1.70;;
20986;SDS011;10652;50.306;8.570;2022-12-29T00:15:46;4.63;;;1.77;;
20986;SDS011;10652;50.306;8.570;2022-12-29T00:19:48;4.63;;;2.47;;
20986;SDS011;10652;50.306;8.570;2022-12-29T00:24:11;5.93;;;1.77;;
20986;SDS011;10652;50.306;8.570;2022-12-29T00:28:28;4.68;;;2.10;;
20986;SDS011;10652;50.306;8.570;2022-12-29T00:32:48;3.05;;;1.70;;
20986;SDS011;10652;50.306;8.570;2022-12-29T00:37:10;3.97;;;1.70;;
20986;SDS011;10652;50.306;8.570;2022-12-29T00:41:12;2.80;;;1.75;;
20986;SDS011;10652;50.306;8.570;2022-12-29T00:45:35;4.15;;;2.00;;
20986;SDS011;10652;50.306;8.570;2022-12-29T00:49:38;1.92;;;1.38;;
20986;SDS011;10652;50.306;8.570;2022-12-29T00:53:40;4.15;;;1.52;;
20986;SDS011;10652;50.306;8.570;2022-12-29T00:57:42;2.50;;;1.83;;
20986;SDS011;10652;50.306;8.570;2022-12-29T01:01:45;2.78;;;1.88;;
20986;SDS011;10652;50.306;8.570;2022-12-29T01:05:48;4.03;;;2.17;;
20986;SDS011;10652;50.306;8.570;2022-12-29T01:09:50;2.30;;;1.23;;
20986;SDS011;10652;50.306;8.570;2022-12-29T01:14:11;1.58;;;1.23;;
20986;SDS011;10652;50.306;8.570;2022-12-29T01:18:13;2.35;;;1.20;;
20986;SDS011;10652;50.306;8.570;2022-12-29T01:22:15;2.47;;;1.15;;
20986;SDS011;10652;50.306;8.570;2022-12-29T01:26:18;1.83;;;1.20;;
20986;SDS011;10652;50.306;8.570;2022-12-29T01:30:20;1.55;;;1.27;;
20986;SDS011;10652;50.306;8.570;2022-12-29T01:34:22;2.15;;;1.13;;
20986;SDS011;10652;50.306;8.570;2022-12-29T01:38:24;2.13;;;0.98;;
20986;SDS011;10652;50.306;8.570;2022-12-29T01:42:26;1.67;;;0.90;;
20986;SDS011;10652;50.306;8.570;2022-12-29T01:50:43;1.27;;;0.65;;
20986;SDS011;10652;50.306;8.570;2022-12-29T01:54:53;1.75;;;0.80;;
20986;SDS011;10652;50.306;8.570;2022-12-29T01:59:01;1.23;;;0.55;;
20986;SDS011;10652;50.306;8.570;2022-12-29T02:03:08;0.63;;;0.63;;
20986;SDS011;10652;50.306;8.570;2022-12-29T02:07:17;1.30;;;0.80;;
20986;SDS011;10652;50.306;8.570;2022-12-29T02:11:20;0.85;;;0.77;;
20986;SDS011;10652;50.306;8.570;2022-12-29T02:25:32;1.35;;;0.80;;
20986;SDS011;10652;50.306;8.570;2022-12-29T02:29:39;0.77;;;0.70;;
20986;SDS011;10652;50.306;8.570;2022-12-29T02:34:07;2.13;;;0.75;;
20986;SDS011;10652;50.306;8.570;2022-12-29T02:38:31;1.65;;;0.90;;
20986;SDS011;10652;50.306;8.570;2022-12-29T02:42:39;0.98;;;0.80;;
20986;SDS011;10652;50.306;8.570;2022-12-29T02:47:11;1.35;;;0.80;;
20986;SDS011;10652;50.306;8.570;2022-12-29T02:51:18;1.15;;;0.77;;
20986;SDS011;10652;50.306;8.570;2022-12-29T02:55:25;1.90;;;0.88;;
20986;SDS011;10652;50.306;8.570;2022-12-29T02:59:28;1.70;;;1.00;;
20986;SDS011;10652;50.306;8.570;2022-12-29T03:03:35;1.10;;;1.00;;
20986;SDS011;10652;50.306;8.570;2022-12-29T03:12:18;1.42;;;0.80;;
20986;SDS011;10652;50.306;8.570;2022-12-29T03:21:55;0.70;;;0.70;;
20986;SDS011;10652;50.306;8.570;2022-12-29T03:26:19;1.55;;;0.55;;
20986;SDS011;10652;50.306;8.570;2022-12-29T03:30:23;1.17;;;0.60;;
20986;SDS011;10652;50.306;8.570;2022-12-29T03:34:28;2.40;;;0.60;;
20986;SDS011;10652;50.306;8.570;2022-12-29T03:43:01;1.35;;;0.50;;
20986;SDS011;10652;50.306;8.570;2022-12-29T03:47:06;1.90;;;0.50;;
20986;SDS011;10652;50.306;8.570;2022-12-29T03:51:09;2.30;;;0.63;;
20986;SDS011;10652;50.306;8.570;2022-12-29T03:55:11;1.20;;;0.40;;
20986;SDS011;10652;50.306;8.570;2022-12-29T03:59:14;0.32;;;0.32;;
20986;SDS011;10652;50.306;8.570;2022-12-29T04:03:16;0.98;;;0.40;;
20986;SDS011;10652;50.306;8.570;2022-12-29T04:07:19;0.40;;;0.40;;
20986;SDS011;10652;50.306;8.570;2022-12-29T04:11:22;0.98;;;0.40;;
20986;SDS011;10652;50.306;8.570;2022-12-29T04:15:30;1.10;;;0.68;;
20986;SDS011;10652;50.306;8.570;2022-12-29T04:19:33;0.55;;;0.55;;
20986;SDS011;10652;50.306;8.570;2022-12-29T04:23:36;4.90;;;1.00;;
20986;SDS011;10652;50.306;8.570;2022-12-29T04:27:41;2.17;;;1.00;;
20986;SDS011;10652;50.306;8.570;2022-12-29T04:32:09;1.70;;;1.00;;
20986;SDS011;10652;50.306;8.570;2022-12-29T04:36:17;2.13;;;1.05;;
20986;SDS011;10652;50.306;8.570;2022-12-29T04:40:20;2.17;;;1.20;;
20986;SDS011;10652;50.306;8.570;2022-12-29T04:44:22;1.27;;;0.75;;
20986;SDS011;10652;50.306;8.570;2022-12-29T04:48:35;1.83;;;1.05;;
20986;SDS011;10652;50.306;8.570;2022-12-29T04:53:16;2.50;;;0.90;;
20986;SDS011;10652;50.306;8.570;2022-12-29T04:57:19;2.42;;;1.30;;
20986;SDS011;10652;50.306;8.570;2022-12-29T05:01:26;1.00;;;0.90;;
20986;SDS011;10652;50.306;8.570;2022-12-29T05:05:28;2.67;;;1.02;;
20986;SDS011;10652;50.306;8.570;2022-12-29T05:09:31;2.58;;;1.15;;
20986;SDS011;10652;50.306;8.570;2022-12-29T05:13:34;2.50;;;1.30;;
20986;SDS011;10652;50.306;8.570;2022-12-29T05:17:37;2.45;;;1.13;;
20986;SDS011;10652;50.306;8.570;2022-12-29T05:21:40;2.45;;;1.40;;
20986;SDS011;10652;50.306;8.570;2022-12-29T05:25:43;2.45;;;1.08;;
20986;SDS011;10652;50.306;8.570;2022-12-29T05:30:09;2.92;;;1.20;;
20986;SDS011;10652;50.306;8.570;2022-12-29T05:34:12;3.30;;;1.33;;
20986;SDS011;10652;50.306;8.570;2022-12-29T05:38:15;2.80;;;1.38;;
20986;SDS011;10652;50.306;8.570;2022-12-29T05:42:19;3.55;;;1.20;;
20986;SDS011;10652;50.306;8.570;2022-12-29T05:46:38;1.50;;;1.00;;
20986;SDS011;10652;50.306;8.570;2022-12-29T05:50:49;1.25;;;1.00;;
20986;SDS011;10652;50.306;8.570;2022-12-29T05:54:58;1.77;;;0.82;;
20986;SDS011;10652;50.306;8.570;2022-12-29T05:59:01;1.27;;;0.75;;
20986;SDS011;10652;50.306;8.570;2022-12-29T06:03:04;1.58;;;0.90;;
20986;SDS011;10652;50.306;8.570;2022-12-29T06:07:06;0.93;;;0.75;;
20986;SDS011;10652;50.306;8.570;2022-12-29T06:11:15;1.58;;;1.30;;
20986;SDS011;10652;50.306;8.570;2022-12-29T06:15:23;1.30;;;0.90;;
20986;SDS011;10652;50.306;8.570;2022-12-29T06:19:27;2.53;;;1.17;;
20986;SDS011;10652;50.306;8.570;2022-12-29T06:23:29;1.60;;;0.80;;
20986;SDS011;10652;50.306;8.570;2022-12-29T06:27:33;1.23;;;1.00;;
20986;SDS011;10652;50.306;8.570;2022-12-29T06:31:35;1.00;;;0.82;;
20986;SDS011;10652;50.306;8.570;2022-12-29T06:35:38;2.65;;;1.20;;
20986;SDS011;10652;50.306;8.570;2022-12-29T06:39:41;1.85;;;1.00;;
20986;SDS011;10652;50.306;8.570;2022-12-29T06:43:46;1.63;;;0.90;;
20986;SDS011;10652;50.306;8.570;2022-12-29T06:47:57;1.30;;;0.90;;
20986;SDS011;10652;50.306;8.570;2022-12-29T06:51:59;1.10;;;0.90;;
20986;SDS011;10652;50.306;8.570;2022-12-29T06:56:13;1.20;;;0.95;;
20986;SDS011;10652;50.306;8.570;2022-12-29T07:00:15;3.65;;;0.93;;
20986;SDS011;10652;50.306;8.570;2022-12-29T07:04:23;1.70;;;1.00;;
20986;SDS011;10652;50.306;8.570;2022-12-29T07:08:25;1.73;;;0.70;;
20986;SDS011;10652;50.306;8.570;2022-12-29T07:12:27;0.95;;;0.50;;
20986;SDS011;10652;50.306;8.570;2022-12-29T07:16:29;1.77;;;0.50;;
20986;SDS011;10652;50.306;8.570;2022-12-29T07:20:32;1.70;;;0.63;;
20986;SDS011;10652;50.306;8.570;2022-12-29T07:24:34;1.55;;;0.65;;
20986;SDS011;10652;50.306;8.570;2022-12-29T07:28:36;1.17;;;0.63;;
20986;SDS011;10652;50.306;8.570;2022-12-29T07:32:39;2.58;;;1.25;;
20986;SDS011;10652;50.306;8.570;2022-12-29T07:36:41;1.33;;;1.00;;
20986;SDS011;10652;50.306;8.570;2022-12-29T07:40:44;3.15;;;1.30;;
20986;SDS011;10652;50.306;8.570;2022-12-29T07:44:46;2.15;;;1.05;;
20986;SDS011;10652;50.306;8.570;2022-12-29T07:48:53;4.18;;;1.50;;
20986;SDS011;10652;50.306;8.570;2022-12-29T07:52:55;2.40;;;1.40;;
20986;SDS011;10652;50.306;8.570;2022-12-29T07:56:57;3.85;;;1.52;;
20986;SDS011;10652;50.306;8.570;2022-12-29T08:01:01;3.70;;;2.08;;
20986;SDS011;10652;50.306;8.570;2022-12-29T08:05:04;2.45;;;1.70;;
20986;SDS011;10652;50.306;8.570;2022-12-29T08:09:06;3.65;;;1.70;;
20986;SDS011;10652;50.306;8.570;2022-12-29T08:13:18;2.42;;;1.40;;
20986;SDS011;10652;50.306;8.570;2022-12-29T08:17:21;3.33;;;1.40;;
20986;SDS011;10652;50.306;8.570;2022-12-29T08:21:23;2.15;;;1.40;;
20986;SDS011;10652;50.306;8.570;2022-12-29T08:25:25;5.45;;;1.95;;
20986;SDS011;10652;50.306;8.570;2022-12-29T08:29:27;4.35;;;2.20;;
20986;SDS011;10652;50.306;8.570;2022-12-29T08:33:29;4.13;;;2.17;;
20986;SDS011;10652;50.306;8.570;2022-12-29T08:37:32;1.70;;;1.25;;
20986;SDS011;10652;50.306;8.570;2022-12-29T08:41:34;2.55;;;1.85;;
20986;SDS011;10652;50.306;8.570;2022-12-29T08:45:36;5.18;;;3.30;;
20986;SDS011;10652;50.306;8.570;2022-12-29T08:49:38;4.47;;;2.00;;
20986;SDS011;10652;50.306;8.570;2022-12-29T08:53:41;3.28;;;1.75;;
20986;SDS011;10652;50.306;8.570;2022-12-29T08:57:43;2.45;;;1.90;;
20986;SDS011;10652;50.306;8.570;2022-12-29T09:01:50;2.17;;;1.40;;
20986;SDS011;10652;50.306;8.570;2022-12-29T09:05:52;1.52;;;1.20;;
20986;SDS011;10652;50.306;8.570;2022-12-29T09:09:55;2.83;;;1.50;;
20986;SDS011;10652;50.306;8.570;2022-12-29T09:13:57;1.85;;;1.35;;
20986;SDS011;10652;50.306;8.570;2022-12-29T09:17:59;3.08;;;1.73;;
20986;SDS011;10652;50.306;8.570;2022-12-29T09:22:01;3.97;;;2.00;;
20986;SDS011;10652;50.306;8.570;2022-12-29T09:26:04;3.67;;;1.77;;
20986;SDS011;10652;50.306;8.570;2022-12-29T09:30:07;1.65;;;1.40;;
20986;SDS011;10652;50.306;8.570;2022-12-29T09:34:11;1.92;;;1.30;;
20986;SDS011;10652;50.306;8.570;2022-12-29T09:38:13;1.15;;;0.93;;
20986;SDS011;10652;50.306;8.570;2022-12-29T09:46:40;2.05;;;0.95;;
20986;SDS011;10652;50.306;8.570;2022-12-29T09:50:53;1.75;;;0.73;;
20986;SDS011;10652;50.306;8.570;2022-12-29T09:55:00;2.05;;;0.90;;
20986;SDS011;10652;50.306;8.570;2022-12-29T09:59:15;1.02;;;0.80;;
20986;SDS011;10652;50.306;8.570;2022-12-29T10:07:30;2.25;;;0.90;;
20986;SDS011;10652;50.306;8.570;2022-12-29T10:16:09;1.60;;;0.70;;
20986;SDS011;10652;50.306;8.570;2022-12-29T10:20:33;2.80;;;1.00;;
20986;SDS011;10652;50.306;8.570;2022-12-29T10:25:15;1.90;;;0.57;;
20986;SDS011;10652;50.306;8.570;2022-12-29T10:29:22;2.85;;;0.90;;
20986;SDS011;10652;50.306;8.570;2022-12-29T10:33:34;1.92;;;0.85;;
20986;SDS011;10652;50.306;8.570;2022-12-29T10:37:52;2.80;;;0.80;;
20986;SDS011;10652;50.306;8.570;2022-12-29T10:42:14;2.25;;;0.57;;
20986;SDS011;10652;50.306;8.570;2022-12-29T10:46:36;1.00;;;0.70;;
20986;SDS011;10652;50.306;8.570;2022-12-29T10:50:40;1.05;;;0.50;;
20986;SDS011;10652;50.306;8.570;2022-12-29T10:58:57;2.22;;;0.80;;
20986;SDS011;10652;50.306;8.570;2022-12-29T11:03:13;1.48;;;0.50;;
20986;SDS011;10652;50.306;8.570;2022-12-29T11:07:31;2.20;;;0.43;;
20986;SDS011;10652;50.306;8.570;2022-12-29T11:11:34;3.03;;;0.60;;
20986;SDS011;10652;50.306;8.570;2022-12-29T11:15:38;1.52;;;0.47;;
20986;SDS011;10652;50.306;8.570;2022-12-29T11:19:42;3.53;;;0.95;;
20986;SDS011;10652;50.306;8.570;2022-12-29T11:23:44;1.77;;;0.70;;
20986;SDS011;10652;50.306;8.570;2022-12-29T11:28:02;1.10;;;0.40;;
20986;SDS011;10652;50.306;8.570;2022-12-29T11:32:19;1.05;;;0.38;;
20986;SDS011;10652;50.306;8.570;2022-12-29T11:36:30;1.67;;;0.75;;
20986;SDS011;10652;50.306;8.570;2022-12-29T11:40:32;0.68;;;0.50;;
20986;SDS011;10652;50.306;8.570;2022-12-29T11:44:47;1.52;;;0.40;;
20986;SDS011;10652;50.306;8.570;2022-12-29T11:48:51;0.88;;;0.20;;
20986;SDS011;10652;50.306;8.570;2022-12-29T11:53:00;2.35;;;0.30;;
20986;SDS011;10652;50.306;8.570;2022-12-29T11:57:15;2.20;;;0.63;;
20986;SDS011;10652;50.306;8.570;2022-12-29T12:01:21;2.85;;;0.40;;
20986;SDS011;10652;50.306;8.570;2022-12-29T12:05:46;1.55;;;0.75;;
20986;SDS011;10652;50.306;8.570;2022-12-29T12:09:58;2.08;;;0.50;;
20986;SDS011;10652;50.306;8.570;2022-12-29T12:14:23;1.73;;;0.30;;
20986;SDS011;10652;50.306;8.570;2022-12-29T12:19:01;3.97;;;0.60;;
20986;SDS011;10652;50.306;8.570;2022-12-29T12:28:05;3.75;;;0.60;;
20986;SDS011;10652;50.306;8.570;2022-12-29T12:32:17;3.60;;;1.60;;
20986;SDS011;10652;50.306;8.570;2022-12-29T12:50:00;1.70;;;0.43;;
20986;SDS011;10652;50.306;8.570;2022-12-29T13:03:44;1.63;;;0.60;;
20986;SDS011;10652;50.306;8.570;2022-12-29T13:12:22;3.72;;;0.70;;
20986;SDS011;10652;50.306;8.570;2022-12-29T13:16:41;2.00;;;0.40;;
20986;SDS011;10652;50.306;8.570;2022-12-29T13:20:58;2.38;;;1.00;;
20986;SDS011;10652;50.306;8.570;2022-12-29T13:25:19;3.22;;;0.70;;
20986;SDS011;10652;50.306;8.570;2022-12-29T13:29:41;2.78;;;0.80;;
20986;SDS011;10652;50.306;8.570;2022-12-29T13:34:25;1.67;;;0.55;;
20986;SDS011;10652;50.306;8.570;2022-12-29T13:38:34;1.30;;;0.50;;
20986;SDS011;10652;50.306;8.570;2022-12-29T13:42:40;2.70;;;0.70;;
20986;SDS011;10652;50.306;8.570;2022-12-29T13:46:43;4.78;;;1.40;;
20986;SDS011;10652;50.306;8.570;2022-12-29T13:50:51;2.42;;;0.55;;
20986;SDS011;10652;50.306;8.570;2022-12-29T13:55:02;1.85;;;0.70;;
20986;SDS011;10652;50.306;8.570;2022-12-29T13:59:35;2.28;;;0.50;;
20986;SDS011;10652;50.306;8.570;2022-12-29T14:07:57;3.47;;;0.50;;
20986;SDS011;10652;50.306;8.570;2022-12-29T14:12:01;2.58;;;0.73;;
20986;SDS011;10652;50.306;8.570;2022-12-29T14:16:25;2.10;;;0.57;;
20986;SDS011;10652;50.306;8.570;2022-12-29T14:20:30;2.78;;;0.50;;
20986;SDS011;10652;50.306;8.570;2022-12-29T14:28:35;2.25;;;0.65;;
20986;SDS011;10652;50.306;8.570;2022-12-29T14:32:47;1.73;;;0.50;;
20986;SDS011;10652;50.306;8.570;2022-12-29T14:37:03;2.85;;;0.50;;
20986;SDS011;10652;50.306;8.570;2022-12-29T14:41:24;1.58;;;0.63;;
20986;SDS011;10652;50.306;8.570;2022-12-29T14:45:30;2.13;;;0.80;;
20986;SDS011;10652;50.306;8.570;2022-12-29T14:49:40;3.60;;;0.80;;
20986;SDS011;10652;50.306;8.570;2022-12-29T14:53:48;3.97;;;0.93;;
20986;SDS011;10652;50.306;8.570;2022-12-29T14:57:56;2.25;;;1.20;;
20986;SDS011;10652;50.306;8.570;2022-12-29T15:02:04;4.22;;;1.10;;
20986;SDS011;10652;50.306;8.570;2022-12-29T15:06:17;5.72;;;2.00;;
20986;SDS011;10652;50.306;8.570;2022-12-29T15:14:32;5.40;;;1.50;;
20986;SDS011;10652;50.306;8.570;2022-12-29T15:18:34;4.15;;;2.00;;
20986;SDS011;10652;50.306;8.570;2022-12-29T15:22:36;3.60;;;1.42;;
20986;SDS011;10652;50.306;8.570;2022-12-29T15:26:40;2.30;;;1.10;;
20986;SDS011;10652;50.306;8.570;2022-12-29T15:30:51;3.35;;;1.00;;
20986;SDS011;10652;50.306;8.570;2022-12-29T15:34:54;3.90;;;1.73;;
20986;SDS011;10652;50.306;8.570;2022-12-29T15:38:58;3.08;;;1.23;;
20986;SDS011;10652;50.306;8.570;2022-12-29T15:47:08;3.55;;;1.17;;
20986;SDS011;10652;50.306;8.570;2022-12-29T15:55:30;7.82;;;3.63;;
20986;SDS011;10652;50.306;8.570;2022-12-29T15:59:35;4.35;;;1.70;;
20986;SDS011;10652;50.306;8.570;2022-12-29T16:03:37;1.55;;;0.45;;
20986;SDS011;10652;50.306;8.570;2022-12-29T16:07:39;2.92;;;0.80;;
20986;SDS011;10652;50.306;8.570;2022-12-29T16:11:54;6.20;;;1.50;;
20986;SDS011;10652;50.306;8.570;2022-12-29T16:16:02;3.92;;;1.60;;
20986;SDS011;10652;50.306;8.570;2022-12-29T16:20:15;3.75;;;1.77;;
20986;SDS011;10652;50.306;8.570;2022-12-29T16:24:25;5.13;;;1.80;;
20986;SDS011;10652;50.306;8.570;2022-12-29T16:28:38;3.90;;;1.50;;
20986;SDS011;10652;50.306;8.570;2022-12-29T16:32:49;5.43;;;3.08;;
20986;SDS011;10652;50.306;8.570;2022-12-29T16:36:56;5.70;;;2.78;;
20986;SDS011;10652;50.306;8.570;2022-12-29T16:41:00;4.45;;;1.80;;
20986;SDS011;10652;50.306;8.570;2022-12-29T16:45:19;5.20;;;2.00;;
20986;SDS011;10652;50.306;8.570;2022-12-29T16:49:24;3.75;;;1.50;;
20986;SDS011;10652;50.306;8.570;2022-12-29T16:53:28;4.63;;;1.77;;
20986;SDS011;10652;50.306;8.570;2022-12-29T16:57:34;4.30;;;1.75;;
20986;SDS011;10652;50.306;8.570;2022-12-29T17:01:38;3.72;;;1.70;;
20986;SDS011;10652;50.306;8.570;2022-12-29T17:05:41;4.53;;;1.90;;
20986;SDS011;10652;50.306;8.570;2022-12-29T17:09:43;2.92;;;1.60;;
20986;SDS011;10652;50.306;8.570;2022-12-29T17:13:45;6.95;;;2.13;;
20986;SDS011;10652;50.306;8.570;2022-12-29T17:17:48;11.35;;;4.97;;
20986;SDS011;10652;50.306;8.570;2022-12-29T17:21:52;5.95;;;2.40;;
20986;SDS011;10652;50.306;8.570;2022-12-29T17:25:54;6.65;;;2.95;;
20986;SDS011;10652;50.306;8.570;2022-12-29T17:29:58;7.30;;;3.67;;
20986;SDS011;10652;50.306;8.570;2022-12-29T17:34:02;7.45;;;3.03;;
20986;SDS011;10652;50.306;8.570;2022-12-29T17:42:26;3.47;;;1.83;;
20986;SDS011;10652;50.306;8.570;2022-12-29T17:46:28;4.47;;;1.17;;
20986;SDS011;10652;50.306;8.570;2022-12-29T17:50:30;3.17;;;1.35;;
20986;SDS011;10652;50.306;8.570;2022-12-29T17:54:33;5.43;;;1.58;;
20986;SDS011;10652;50.306;8.570;2022-12-29T17:58:35;4.80;;;1.70;;
20986;SDS011;10652;50.306;8.570;2022-12-29T18:02:37;5.35;;;2.03;;
20986;SDS011;10652;50.306;8.570;2022-12-29T18:06:40;5.35;;;1.80;;
20986;SDS011;10652;50.306;8.570;2022-12-29T18:10:42;5.85;;;2.60;;
20986;SDS011;10652;50.306;8.570;2022-12-29T18:14:45;6.15;;;2.60;;
20986;SDS011;10652;50.306;8.570;2022-12-29T18:18:47;5.30;;;2.00;;
20986;SDS011;10652;50.306;8.570;2022-12-29T18:22:49;3.00;;;1.30;;
20986;SDS011;10652;50.306;8.570;2022-12-29T18:26:51;5.10;;;2.10;;
20986;SDS011;10652;50.306;8.570;2022-12-29T18:30:55;5.45;;;2.13;;
20986;SDS011;10652;50.306;8.570;2022-12-29T18:34:58;5.18;;;2.10;;
20986;SDS011;10652;50.306;8.570;2022-12-29T18:39:00;6.53;;;1.95;;
20986;SDS011;10652;50.306;8.570;2022-12-29T18:43:02;6.63;;;1.65;;
20986;SDS011;10652;50.306;8.570;2022-12-29T18:47:05;5.20;;;1.50;;
20986;SDS011;10652;50.306;8.570;2022-12-29T18:51:21;5.63;;;1.92;;
20986;SDS011;10652;50.306;8.570;2022-12-29T18:55:25;5.22;;;1.67;;
20986;SDS011;10652;50.306;8.570;2022-12-29T18:59:29;4.82;;;1.80;;
20986;SDS011;10652;50.306;8.570;2022-12-29T19:03:31;8.05;;;1.90;;
20986;SDS011;10652;50.306;8.570;2022-12-29T19:07:33;7.45;;;1.60;;
20986;SDS011;10652;50.306;8.570;2022-12-29T19:11:35;5.25;;;1.65;;
20986;SDS011;10652;50.306;8.570;2022-12-29T19:15:37;5.55;;;1.23;;
20986;SDS011;10652;50.306;8.570;2022-12-29T19:19:40;5.78;;;1.25;;
20986;SDS011;10652;50.306;8.570;2022-12-29T19:23:43;6.47;;;1.48;;
20986;SDS011;10652;50.306;8.570;2022-12-29T19:27:46;4.50;;;1.40;;
20986;SDS011;10652;50.306;8.570;2022-12-29T19:31:48;6.90;;;1.75;;
20986;SDS011;10652;50.306;8.570;2022-12-29T19:35:51;4.30;;;1.50;;
20986;SDS011;10652;50.306;8.570;2022-12-29T19:39:53;4.43;;;1.60;;
20986;SDS011;10652;50.306;8.570;2022-12-29T19:43:55;7.68;;;1.40;;
20986;SDS011;10652;50.306;8.570;2022-12-29T19:47:57;4.28;;;1.23;;
20986;SDS011;10652;50.306;8.570;2022-12-29T19:51:59;6.07;;;1.50;;
20986;SDS011;10652;50.306;8.570;2022-12-29T19:56:05;6.47;;;1.77;;
20986;SDS011;10652;50.306;8.570;2022-12-29T20:04:14;6.15;;;2.03;;
20986;SDS011;10652;50.306;8.570;2022-12-29T20:08:16;5.88;;;1.42;;
20986;SDS011;10652;50.306;8.570;2022-12-29T20:12:18;6.30;;;1.48;;
20986;SDS011;10652;50.306;8.570;2022-12-29T20:16:29;5.15;;;1.13;;
20986;SDS011;10652;50.306;8.570;2022-12-29T20:20:32;7.85;;;1.50;;
20986;SDS011;10652;50.306;8.570;2022-12-29T20:24:35;9.88;;;1.80;;
20986;SDS011;10652;50.306;8.570;2022-12-29T20:28:38;8.00;;;1.20;;
20986;SDS011;10652;50.306;8.570;2022-12-29T20:32:40;4.88;;;1.27;;
20986;SDS011;10652;50.306;8.570;2022-12-29T20:36:43;7.63;;;2.25;;
20986;SDS011;10652;50.306;8.570;2022-12-29T20:40:47;9.02;;;3.80;;
20986;SDS011;10652;50.306;8.570;2022-12-29T20:44:49;7.22;;;2.88;;
20986;SDS011;10652;50.306;8.570;2022-12-29T20:48:51;11.93;;;4.38;;
20986;SDS011;10652;50.306;8.570;2022-12-29T20:52:54;9.48;;;2.60;;
20986;SDS011;10652;50.306;8.570;2022-12-29T20:56:56;6.97;;;1.65;;
20986;SDS011;10652;50.306;8.570;2022-12-29T21:01:02;6.32;;;2.00;;
20986;SDS011;10652;50.306;8.570;2022-12-29T21:05:07;8.85;;;1.67;;
20986;SDS011;10652;50.306;8.570;2022-12-29T21:09:26;7.63;;;1.60;;
20986;SDS011;10652;50.306;8.570;2022-12-29T21:13:28;8.88;;;2.90;;
20986;SDS011;10652;50.306;8.570;2022-12-29T21:17:30;7.47;;;1.75;;
20986;SDS011;10652;50.306;8.570;2022-12-29T21:21:32;9.35;;;3.45;;
20986;SDS011;10652;50.306;8.570;2022-12-29T21:25:35;8.48;;;1.40;;
20986;SDS011;10652;50.306;8.570;2022-12-29T21:29:38;6.90;;;2.15;;
20986;SDS011;10652;50.306;8.570;2022-12-29T21:33:40;8.18;;;2.13;;
20986;SDS011;10652;50.306;8.570;2022-12-29T21:37:42;7.70;;;1.63;;
20986;SDS011;10652;50.306;8.570;2022-12-29T21:41:44;12.13;;;2.60;;
20986;SDS011;10652;50.306;8.570;2022-12-29T21:45:49;10.48;;;3.20;;
20986;SDS011;10652;50.306;8.570;2022-12-29T21:49:51;8.73;;;2.30;;
20986;SDS011;10652;50.306;8.570;2022-12-29T21:53:54;9.05;;;2.10;;
20986;SDS011;10652;50.306;8.570;2022-12-29T21:58:17;10.45;;;2.70;;
20986;SDS011;10652;50.306;8.570;2022-12-29T22:02:38;8.57;;;2.42;;
20986;SDS011;10652;50.306;8.570;2022-12-29T22:07:00;5.97;;;1.48;;
20986;SDS011;10652;50.306;8.570;2022-12-29T22:11:21;11.95;;;1.90;;
20986;SDS011;10652;50.306;8.570;2022-12-29T22:15:42;7.45;;;1.55;;
20986;SDS011;10652;50.306;8.570;2022-12-29T22:19:44;7.78;;;1.83;;
20986;SDS011;10652;50.306;8.570;2022-12-29T22:23:46;7.13;;;2.10;;
20986;SDS011;10652;50.306;8.570;2022-12-29T22:27:48;6.93;;;1.85;;
20986;SDS011;10652;50.306;8.570;2022-12-29T22:31:59;7.60;;;1.65;;
20986;SDS011;10652;50.306;8.570;2022-12-29T22:36:01;5.75;;;1.40;;
20986;SDS011;10652;50.306;8.570;2022-12-29T22:40:03;8.48;;;1.40;;
20986;SDS011;10652;50.306;8.570;2022-12-29T22:44:07;6.82;;;1.63;;
20986;SDS011;10652;50.306;8.570;2022-12-29T22:48:09;6.60;;;2.30;;
20986;SDS011;10652;50.306;8.570;2022-12-29T22:52:11;7.32;;;1.75;;
20986;SDS011;10652;50.306;8.570;2022-12-29T22:56:15;9.30;;;1.60;;
20986;SDS011;10652;50.306;8.570;2022-12-29T23:00:17;6.70;;;1.77;;
20986;SDS011;10652;50.306;8.570;2022-12-29T23:04:19;7.05;;;1.80;;
20986;SDS011;10652;50.306;8.570;2022-12-29T23:08:41;10.05;;;1.95;;
20986;SDS011;10652;50.306;8.570;2022-12-29T23:12:44;6.43;;;1.65;;
20986;SDS011;10652;50.306;8.570;2022-12-29T23:16:47;5.97;;;1.77;;
20986;SDS011;10652;50.306;8.570;2022-12-29T23:20:49;6.93;;;2.05;;
20986;SDS011;10652;50.306;8.570;2022-12-29T23:24:52;8.40;;;2.10;;
20986;SDS011;10652;50.306;8.570;2022-12-29T23:28:54;6.88;;;1.60;;
20986;SDS011;10652;50.306;8.570;2022-12-29T23:33:01;17.25;;;6.50;;
20986;SDS011;10652;50.306;8.570;2022-12-29T23:37:03;11.75;;;3.22;;
20986;SDS011;10652;50.306;8.570;2022-12-29T23:41:05;9.75;;;2.25;;
20986;SDS011;10652;50.306;8.570;2022-12-29T23:45:08;9.15;;;1.73;;
20986;SDS011;10652;50.306;8.570;2022-12-29T23:49:11;8.85;;;1.95;;
20986;SDS011;10652;50.306;8.570;2022-12-29T23:53:13;9.20;;;2.15;;
20986;SDS011;10652;50.306;8.570;2022-12-29T23:57:15;8.88;;;2.65;;
